ADDS METAR Data INFO
IDs: Format: Raw Decoded Include TAF

Data at: 2054 UTC 24 Jun 2017

KTKI 242000Z 07009KT 10SM CLR 26/21 A3010 RMK AO2 T02560206
KTKI 241953Z 07009KT 10SM BKN011 BKN025 OVC033 26/21 A3009 RMK AO2 SLP187 T02560206
KTKI 241902Z 05011G18KT 10SM BKN011 25/23 A3010 RMK AO2 T02500228
KTKI 241853Z 06010KT 020V090 10SM BKN015 26/23 A3010 RMK AO2 SLP190 T02560228
KTKI 241814Z 05011KT 10SM BKN014 25/23 A3010 RMK AO2 T02500228
KTKI 241801Z 36010KT 10SM FEW010 SCT028 24/23 A3010 RMK AO2 PRESFR T02390228
KTKI 241753Z 02010KT 10SM FEW008 SCT013 BKN020 24/23 A3011 RMK AO2 SLP194 60039 T02390228 10239 20206 58021
KTKI 241711Z 05007KT 10SM BKN007 23/22 A3013 RMK AO2 T02280222
KTKI 241653Z 02009KT 10SM FEW007 SCT110 23/22 A3013 RMK AO2 RAE45 SLP201 P0001 T02280222
KTKI 241553Z 24003KT 10SM -RA FEW120 22/22 A3017 RMK AO2 SLP210 P0001 T02170217
KTKI 241453Z 17005KT 10SM -RA FEW017 SCT095 BKN110 21/21 A3017 RMK AO2 LTG DSNT E AND SE SLP212 P0006 60037 T02110211 51030
KTKI 241353Z 08005KT 8SM -RA FEW070 BKN095 OVC120 21/21 A3015 RMK AO2 WSHFT 1252 LTG DSNT ALQDS RAB40 SLP206 P0028 T02060206
KTKI 241335Z 06007KT 4SM VCTS BR SCT049 BKN070 OVC090 21/21 A3015 RMK AO2 WSHFT 1252 LTG DSNT ALQDS P0026 T02060206
KTKI 241322Z 05006KT 2 1/2SM VCTS BR FEW016 BKN047 OVC070 21/21 A3015 RMK AO2 WSHFT 1252 LTG DSNT ALQDS P0022 T02060206
KTKI 241309Z 04012G22KT 2 1/2SM VCTS BR SCT015 BKN027 OVC048 22/22 A3016 RMK AO2 WSHFT 1252 LTG DSNT ALQDS P0010 T02170217
KTKI 241253Z 36011KT 6SM VCTS BR BKN018 BKN027 OVC065 22/22 A3015 RMK AO2 LTG DSNT ALQDS RAB17E27B35E48 SLP203 P0003 T02220222
KTKI 241231Z 31004KT 10SM BKN018 BKN060 BKN070 23/22 A3012 RMK AO2 LTG DSNT ALQDS RAB17E27 PRESRR P0000 T02280222
KTKI 241201Z 07004KT 10SM VCTS SCT010 OVC014 22/22 A3008 RMK AO2 LTG DSNT ALQDS T02220222
KTKI 241153Z 07004KT 10SM OVC013 22/22 A3008 RMK AO2 LTG DSNT SW-N PRESRR SLP179 70048 T02220222 10233 20222 53036
KTKI 241053Z 09004KT 10SM OVC009 22/22 A3002 RMK AO2 LTG DSNT N AND NW CIG 006V012 SLP160 T02220222
KTKI 241011Z AUTO 10005KT 10SM BKN010 BKN025 23/22 A3001 RMK AO2 LTG DSNT N AND NW CIG 008V015 T02280222
KTKI 240953Z AUTO 09003KT 10SM FEW014 BKN025 BKN031 23/22 A3001 RMK AO2 LTG DSNT S PRESRR SLP154 T02280222
KTKI 240853Z AUTO 13004KT 10SM CLR 22/22 A2997 RMK AO2 SLP143 T02220222 55003
KTKI 240807Z AUTO 00000KT 10SM SCT005 22/22 A2994 RMK AO2 LTG DSNT SE-SW T02220222
KTKI 240753Z AUTO 11003KT 10SM BKN005 22/22 A2995 RMK AO2 LTG DSNT SE-SW CIG 004V009 SLP136 T02220222
KTKI 240744Z AUTO 12003KT 10SM BKN006 22/22 A2996 RMK AO2 LTG DSNT SE-SW T02220222
KTKI 240735Z AUTO 09006KT 10SM SCT006 22/22 A2997 RMK AO2 LTG DSNT SE-SW PRESRR T02220222
KTKI 240653Z AUTO 02004KT 10SM CLR 23/23 A2995 RMK AO2 LTG DSNT SE-SW TSE0555 SLP136 T02280228
KTKI 240641Z AUTO 09004KT 10SM FEW019 FEW080 FEW110 23/22 A2995 RMK AO2 LTG DSNT E-SW TSE0555 PRESFR T02280222
KTKI 240601Z AUTO 13004KT 10SM VCTS FEW015 23/22 A2998 RMK AO2 LTG DSNT ALQDS TSE0555 T02280217
KTKI 240553Z AUTO 13004KT 10SM TS FEW095 23/22 A2998 RMK AO2 LTG DSNT ALQDS RAE23 PRESRR SLP148 P0001 60048 T02280217 10339 20228 403560228 53024
KTKI 240453Z AUTO 08007G20KT 10SM -TSRA SCT023 OVC032 24/23 A2994 RMK AO2 LTG DSNT ALQDS RAB0355 SLP135 P0047 T02390228
KTKI 240435Z AUTO 07016G22KT 10SM -TSRA BKN020 OVC100 25/24 A2995 RMK AO2 LTG DSNT ALQDS RAB0355 P0047 T02500244
KTKI 240418Z AUTO 08008KT 3SM -TSRA BR SCT019 BKN039 OVC100 26/26 A2993 RMK AO2 LTG DSNT ALQDS RAB0355 P0046 T02610261
KTKI 240405Z AUTO 05011G21KT 1 1/2SM +TSRA BR FEW011 BKN038 OVC047 27/26 A2992 RMK AO2 LTG DSNT N-SE RAB0355 P0028 T02670256
KTKI 240353Z AUTO 04011KT 10SM TS BKN038 BKN046 29/26 A2991 RMK AO2 LTG DSNT ALQDS TSB36 SLP121 T02890256
KTKI 240342Z AUTO 02012G20KT 10SM TS SCT048 29/26 A2990 RMK AO2 LTG DSNT ALQDS TSB36 PRESRR T02890261
KTKI 240316Z AUTO 11003KT 10SM VCTS CLR 30/26 A2987 RMK AO2 LTG DSNT N-E T03000256
KTKI 240253Z AUTO 11003KT 10SM FEW050 30/26 A2987 RMK AO2 LTG DSNT NE SLP106 T03000256 53019
KTKI 240153Z 13003KT 10SM CLR 31/26 A2984 RMK AO2 SLP098 T03110256
KTKI 240053Z 10003KT 10SM CLR 33/25 A2983 RMK AO2 SLP093 T03280250
KTKI 232353Z 08008KT 10SM CLR 34/25 A2981 RMK AO2 SLP087 T03390250 10356 20311 55001
KTKI 232253Z 09006KT 10SM CLR 34/24 A2980 RMK AO2 SLP084 T03440239 $
KTKI 232153Z 12007KT 10SM CLR 34/26 A2981 RMK AO2 LTG DSNT NW SLP086 T03440256 $
KTKI 232053Z VRB03KT 10SM CLR 34/25 A2981 RMK AO2 SLP088 T03440250 58002 $
KTKI 231953Z 12004KT 10SM CLR 33/26 A2981 RMK AO2 LTG DSNT N SLP089 T03330261
KTKI 231853Z 11007KT 10SM CLR 33/26 A2982 RMK AO2 SLP090 T03280261
KTKI 231753Z 13010KT 10SM CLR 31/26 A2982 RMK AO2 SLP090 T03110261 10311 20233 53002
KTKI 231653Z 13008KT 10SM CLR 30/26 A2981 RMK AO2 SLP087 T03000261
KTKI 231553Z 15006KT 10SM CLR 29/26 A2980 RMK AO2 SLP084 T02940256
KTKI 231453Z 18008KT 10SM CLR 28/25 A2981 RMK AO2 SLP088 T02830250 53019
KTKI 231422Z 19008KT 10SM SCT012 28/26 A2980 RMK AO2 T02830256
KTKI 231405Z 18008KT 10SM BKN011 27/25 A2980 RMK AO2 T02720250
KTKI 231353Z 17009KT 10SM SCT011 27/26 A2979 RMK AO2 SLP083 T02720256
KTKI 231318Z 18007KT 10SM FEW007 26/25 A2978 RMK AO2 T02560250
KTKI 231253Z 16004KT 10SM CLR 24/24 A2977 RMK AO2 SLP075 T02440244
KTKI 231153Z 00000KT 10SM CLR 23/23 A2975 RMK AO2 SLP070 T02330233 10256 20228 53009
KTKI 231053Z 00000KT 10SM CLR 23/23 A2973 RMK AO2 SLP063 T02330233
KTKI 230953Z AUTO 00000KT 10SM CLR 23/23 A2973 RMK AO2 SLP061 T02280228


Page loaded:  20:54 UTC  |   01:54 PM Pacific  |   02:54 PM Mountain  |   03:54 PM Central  |   04:54 PM Eastern

 

ADVISORIES

FORECASTS

FORECASTS

OBSERVATIONS

USER TOOLS

ABOUT US